Adin, CA

4:41 PM PDT on July 28, 2016 (GMT -0700)
Rocky Acres | | Change Station
Active Advisory: Fire Weather Watch

Elev 4236 ft 41.21 °N, 120.98 °W | Updated 20 seconds ago

Clear
Clear
100.9 °F
Feels Like 96 °F
N
15.5
Wind Variable Wind from West

Today
High -- | Low -- °F
--% Chance of Precip.
Yesterday
High -- | Low -- °F
Precip. -- in
Pressure 29.91 in
Visibility 10.0 miles
Clouds Clear
Heat Index 96 °F
Dew Point 39 °F
Humidity 12%
Rainfall 0.00 in
Snow Depth Not available.
5:55 AM 8:23 PM
Waning Crescent, 27% visible
METAR KAAT 282255Z AUTO 32010G16KT 10SM CLR 38/M02 A3007 RMK AO2 SLP126 T03781017
Pressure 29.91 in
Visibility 10.0 miles
Clouds Clear
Heat Index 96 °F
Dew Point 39 °F
Humidity 12%
Rainfall 0.00 in
Snow Depth Not available.
5:55 AM 8:23 PM
Waning Crescent, 27% visible
METAR KAAT 282255Z AUTO 32010G16KT 10SM CLR 38/M02 A3007 RMK AO2 SLP126 T03781017

10-Day Weather Forecast

Almanac

Astronomy

Jul. 28, 2016 Rise Set
Actual Time
Civil Twilight
Nautical Twilight
Astronomical Twilight
Moon
Length of Visible Light
Length of Day
Tomorrow will be .
, % of the Moon is Illuminated

Today's Extremes

State Highs State Lows

Community

WunderPhotos

Upload Photos

1,928,236 photos uploaded!

WunderBlog® & News

Nearby

Air Quality

  Air Quality AQ Index Pollutant
Not available.

Snow Depth

Station Depth Elevation

Earthquake Activity

City Distance Mag. Time & Date
Minimum magnitude displayed is 2.5.

Coastal Water Temperatures

Place Temperature

Stations

Nearby Weather Stations

Station Location Temp. Windchill Dew Point Humidity Wind Precip. Elev Updated Type
                   

Watches & Warnings

Fire Weather Watch
Issued: 2:43 PM PDT Jul. 28, 2016 – National Weather Service

... Fire Weather Watch remains in effect from Friday afternoon
through Friday evening for thunderstorms and strong outflow winds
for portions of northeast California and western Nevada...

* affected area... fire zone 270 Surprise Valley California, fire
zone 271 western Lassen/eastern Plumas/eastern Sierra/eastern
Nevada counties, fire zone 278 eastern Lassen County and fire
zone 458 northern Washoe County.

* Thunderstorms... isolated dry thunderstorms are expected to
develop Friday afternoon and continue into Friday evening.

* Outflow winds... gusts 40-50 mph are likely with locally higher
gusts over 60 mph possible in the desert areas.

* Impacts... lightning can create new fire starts and may combine
with strong outflow winds to cause a fire to rapidly grow in
size and intensity.

Precautionary/preparedness actions...

Avoid outdoor activities that can cause a spark near dry
vegetation... such as yard work... target shooting... or
campfires. Follow local fire restrictions. Check weather.Gov/Reno
for updates and livingwithfire.Info for preparedness tips.



Http://weather.Gov/Reno